createdAt,value
2019-01-29T00:02:14.097Z,8.03
2019-01-29T00:04:42.543Z,7.80
2019-01-29T00:07:11.061Z,6.83
2019-01-29T00:09:39.173Z,8.13
2019-01-29T00:12:07.643Z,5.77
2019-01-29T00:14:35.715Z,7.40
2019-01-29T00:17:04.061Z,8.27
2019-01-29T00:19:32.472Z,5.17
2019-01-29T00:22:00.984Z,4.87
2019-01-29T00:24:29.090Z,4.33
2019-01-29T00:26:57.884Z,9.03
2019-01-29T00:29:26.356Z,4.53
2019-01-29T00:31:54.771Z,5.87
2019-01-29T00:34:23.254Z,7.67
2019-01-29T00:36:51.692Z,5.67
2019-01-29T00:39:20.141Z,4.50
2019-01-29T00:41:48.840Z,7.47
2019-01-29T00:44:17.269Z,6.00
2019-01-29T00:46:45.687Z,5.43
2019-01-29T00:49:14.099Z,6.17
2019-01-29T00:51:42.522Z,6.47
2019-01-29T00:54:11.247Z,6.10
2019-01-29T00:56:39.748Z,4.70
2019-01-29T00:59:08.155Z,6.23
2019-01-29T01:01:36.586Z,5.00
2019-01-29T01:04:05.231Z,9.33
2019-01-29T01:06:33.648Z,7.10
2019-01-29T01:09:02.077Z,8.30
2019-01-29T01:11:30.496Z,8.98
2019-01-29T01:13:58.915Z,6.50
2019-01-29T01:16:27.338Z,6.70
2019-01-29T01:18:55.777Z,10.87
2019-01-29T01:21:24.549Z,5.13
2019-01-29T01:23:52.975Z,8.47
2019-01-29T01:26:21.408Z,6.67
2019-01-29T01:28:49.835Z,10.07
2019-01-29T01:31:18.428Z,8.33
2019-01-29T01:33:46.849Z,5.70
2019-01-29T01:36:15.273Z,8.60
2019-01-29T01:38:44.016Z,6.43
2019-01-29T01:41:12.429Z,6.07
2019-01-29T01:43:40.857Z,5.13
2019-01-29T01:46:09.277Z,6.20
2019-01-29T01:48:37.705Z,6.10
2019-01-29T01:51:06.128Z,8.45
2019-01-29T01:53:34.567Z,6.90
2019-01-29T01:56:02.976Z,9.93
2019-01-29T01:58:31.659Z,5.42
2019-01-29T02:01:00.072Z,5.50
2019-01-29T02:03:28.513Z,4.15
2019-01-29T02:05:57.097Z,3.47
2019-01-29T02:08:25.538Z,3.90
2019-01-29T02:10:54.270Z,7.62
2019-01-29T02:13:22.693Z,4.80
2019-01-29T02:15:51.103Z,3.97
2019-01-29T02:18:19.527Z,6.07
2019-01-29T02:20:48.311Z,11.30
2019-01-29T02:23:16.731Z,6.42
2019-01-29T02:25:45.164Z,5.03
2019-01-29T02:28:13.595Z,8.23
2019-01-29T02:30:42.020Z,8.13
2019-01-29T02:33:10.475Z,4.27
2019-01-29T02:35:38.896Z,6.28
2019-01-29T02:38:07.336Z,5.00
2019-01-29T02:40:35.831Z,6.77
2019-01-29T02:43:04.340Z,4.77
2019-01-29T02:45:32.749Z,5.20
2019-01-29T02:48:01.173Z,5.42
2019-01-29T02:50:29.971Z,4.90
2019-01-29T02:52:58.392Z,4.67
2019-01-29T02:55:26.808Z,9.33
2019-01-29T02:57:55.234Z,12.13
2019-01-29T03:00:26.291Z,4.37
2019-01-29T03:02:54.985Z,9.87
2019-01-29T03:05:23.849Z,8.73
2019-01-29T03:07:52.718Z,3.85
2019-01-29T03:10:25.866Z,4.33
2019-01-29T03:12:54.364Z,4.83
2019-01-29T03:15:28.656Z,4.50
2019-01-29T03:17:57.153Z,6.78
2019-01-29T03:20:28.357Z,5.25
2019-01-29T03:22:56.801Z,9.07
2019-01-29T03:25:25.316Z,6.00
2019-01-29T03:27:54.084Z,4.20
2019-01-29T03:30:23.035Z,4.37
2019-01-29T03:32:51.469Z,8.83
2019-01-29T03:35:19.881Z,4.92
2019-01-29T03:37:48.376Z,6.70
2019-01-29T03:40:20.235Z,6.37
2019-01-29T03:42:48.660Z,9.85
2019-01-29T03:45:20.557Z,11.80
2019-01-29T03:47:49.039Z,7.75
2019-01-29T03:50:22.065Z,10.58
2019-01-29T03:52:50.557Z,9.08
2019-01-29T03:55:19.318Z,9.03
2019-01-29T03:57:47.760Z,10.30
2019-01-29T04:00:19.133Z,7.25
2019-01-29T04:02:47.548Z,7.12
2019-01-29T04:05:17.028Z,9.43
2019-01-29T04:07:45.520Z,5.85
2019-01-29T04:10:16.249Z,3.87
2019-01-29T04:12:45.518Z,5.70
2019-01-29T04:15:16.577Z,5.47
2019-01-29T04:17:45.068Z,6.05
2019-01-29T04:20:20.429Z,8.25
2019-01-29T04:22:48.930Z,7.12
2019-01-29T04:25:17.904Z,10.10
2019-01-29T04:27:46.396Z,7.78
2019-01-29T04:30:19.887Z,5.92
2019-01-29T04:32:48.392Z,7.10
2019-01-29T04:35:16.888Z,8.80
2019-01-29T04:37:45.308Z,8.28
2019-01-29T04:40:15.679Z,7.85
2019-01-29T04:42:44.101Z,8.25
2019-01-29T04:45:14.279Z,6.08
2019-01-29T04:47:42.776Z,4.47
2019-01-29T04:50:13.903Z,6.37
2019-01-29T04:52:42.389Z,8.75
2019-01-29T04:55:13.458Z,5.97
2019-01-29T04:57:41.880Z,6.97
2019-01-29T05:00:18.153Z,7.42
2019-01-29T05:02:46.570Z,9.08
2019-01-29T05:05:15.272Z,11.05
2019-01-29T05:07:43.682Z,6.80
2019-01-29T05:10:17.375Z,8.58
2019-01-29T05:12:46.096Z,12.58
2019-01-29T05:15:16.770Z,8.73
2019-01-29T05:17:45.200Z,8.80
2019-01-29T05:20:15.864Z,7.35
2019-01-29T05:22:44.281Z,7.10
2019-01-29T05:25:12.776Z,7.15
2019-01-29T05:27:41.370Z,10.13
2019-01-29T05:30:21.347Z,10.53
2019-01-29T05:32:49.906Z,10.25
2019-01-29T05:35:18.569Z,6.17
2019-01-29T05:37:47.065Z,10.53
2019-01-29T05:40:20.981Z,10.55
2019-01-29T05:42:49.483Z,10.20
2019-01-29T05:45:19.652Z,5.53
2019-01-29T05:47:48.091Z,6.37
2019-01-29T05:50:16.786Z,12.40
2019-01-29T05:52:45.252Z,10.65
2019-01-29T05:55:15.228Z,10.00
2019-01-29T05:57:43.716Z,9.10
2019-01-29T06:00:15.726Z,10.48
2019-01-29T06:02:44.153Z,10.00
2019-01-29T06:05:14.210Z,8.90
2019-01-29T06:07:42.631Z,11.75
2019-01-29T06:10:14.110Z,10.45
2019-01-29T06:12:42.537Z,13.75
2019-01-29T06:15:36.280Z,11.08
2019-01-29T06:18:04.894Z,9.48
2019-01-29T06:20:33.332Z,8.70
2019-01-29T06:23:01.761Z,12.30
2019-01-29T06:25:30.198Z,13.50
2019-01-29T06:27:58.633Z,7.33
2019-01-29T06:30:27.196Z,9.15
2019-01-29T06:32:55.624Z,11.80
2019-01-29T06:35:24.138Z,14.10
2019-01-29T06:37:52.630Z,13.57
2019-01-29T06:40:23.308Z,11.95
2019-01-29T06:42:51.733Z,12.03
2019-01-29T06:45:21.996Z,8.98
2019-01-29T06:47:50.587Z,12.07
2019-01-29T06:50:20.988Z,8.68
2019-01-29T06:52:49.761Z,12.10
2019-01-29T06:55:20.030Z,10.98
2019-01-29T06:57:54.982Z,10.33
2019-01-29T07:00:21.338Z,10.48
2019-01-29T07:02:50.028Z,17.07
2019-01-29T07:05:18.509Z,14.18
2019-01-29T07:07:46.957Z,10.55
2019-01-29T07:10:17.724Z,10.95
2019-01-29T07:12:46.157Z,15.80
2019-01-29T07:15:35.216Z,9.95
2019-01-29T07:18:05.725Z,12.30
2019-01-29T07:20:34.157Z,12.43
2019-01-29T07:23:02.585Z,13.23
2019-01-29T07:25:31.016Z,10.43
2019-01-29T07:27:59.440Z,9.50
2019-01-29T07:30:27.864Z,12.33
2019-01-29T07:32:56.575Z,14.83
2019-01-29T07:35:24.994Z,14.27
2019-01-29T07:37:53.423Z,11.87
2019-01-29T07:40:21.837Z,13.47
2019-01-29T07:42:50.268Z,13.97
2019-01-29T07:45:18.824Z,11.57
2019-01-29T07:47:47.269Z,14.70
2019-01-29T07:50:15.689Z,14.27
2019-01-29T07:52:44.124Z,13.70
2019-01-29T07:55:12.684Z,11.78
2019-01-29T07:57:41.117Z,14.33
2019-01-29T08:00:16.564Z,11.30
2019-01-29T08:02:45.000Z,17.17
2019-01-29T08:05:13.412Z,14.03
2019-01-29T08:07:42.118Z,13.43
2019-01-29T08:10:16.097Z,14.20
2019-01-29T08:12:44.514Z,12.00
2019-01-29T08:15:19.196Z,13.90
2019-01-29T08:17:47.896Z,9.17
2019-01-29T08:20:17.647Z,15.43
2019-01-29T08:22:46.141Z,13.50
2019-01-29T08:25:14.893Z,16.87
2019-01-29T08:27:43.376Z,9.40
2019-01-29T08:30:14.803Z,11.30
2019-01-29T08:32:43.299Z,9.30
2019-01-29T08:35:13.852Z,13.47
2019-01-29T08:37:42.580Z,14.80
2019-01-29T08:40:13.236Z,15.33
2019-01-29T08:42:41.664Z,12.17
2019-01-29T08:45:12.712Z,11.87
2019-01-29T08:47:41.148Z,10.23
2019-01-29T08:50:34.253Z,12.55
2019-01-29T08:53:02.970Z,11.03
2019-01-29T08:55:31.386Z,15.10
2019-01-29T08:58:00.131Z,12.53
2019-01-29T09:00:28.567Z,12.80
2019-01-29T09:02:56.979Z,13.17
2019-01-29T09:05:25.396Z,13.33
2019-01-29T09:07:53.808Z,10.90
2019-01-29T09:10:22.760Z,12.80
2019-01-29T09:12:51.193Z,12.87
2019-01-29T09:15:20.948Z,12.73
2019-01-29T09:17:49.644Z,10.07
2019-01-29T09:20:22.689Z,13.73
2019-01-29T09:22:51.109Z,9.00
2019-01-29T09:25:22.560Z,12.50
2019-01-29T09:27:49.738Z,13.23
2019-01-29T09:30:20.721Z,9.97
2019-01-29T09:32:49.220Z,15.13
2019-01-29T09:35:17.750Z,13.53
2019-01-29T09:37:46.228Z,11.10
2019-01-29T09:40:17.445Z,10.60
2019-01-29T09:42:46.202Z,11.97
2019-01-29T09:45:17.215Z,15.60
2019-01-29T09:47:45.697Z,8.67
2019-01-29T09:50:17.024Z,15.40
2019-01-29T09:52:45.478Z,12.40
2019-01-29T09:55:16.200Z,12.30
2019-01-29T09:57:44.608Z,15.33
2019-01-29T10:00:33.270Z,13.60
2019-01-29T10:03:01.760Z,13.60
2019-01-29T10:05:30.176Z,13.13
2019-01-29T10:07:58.648Z,12.37
2019-01-29T10:10:27.142Z,17.77
2019-01-29T10:12:55.751Z,13.80
2019-01-29T10:15:26.859Z,12.40
2019-01-29T10:17:55.341Z,11.87
2019-01-29T10:20:24.444Z,17.37
2019-01-29T10:22:52.848Z,15.53
2019-01-29T10:25:21.345Z,16.47
2019-01-29T10:27:49.757Z,16.07
2019-01-29T10:30:24.009Z,15.83
2019-01-29T10:32:52.453Z,13.93
2019-01-29T10:35:22.714Z,14.83
2019-01-29T10:37:51.116Z,18.43
2019-01-29T10:40:21.592Z,18.03
2019-01-29T10:42:50.073Z,14.87
2019-01-29T10:45:22.213Z,13.27
2019-01-29T10:47:50.700Z,11.40
2019-01-29T10:50:27.509Z,17.73
2019-01-29T10:52:56.780Z,13.83
2019-01-29T10:55:25.178Z,13.03
2019-01-29T10:57:53.983Z,15.63
2019-01-29T11:00:25.450Z,11.63
2019-01-29T11:02:53.968Z,16.00
2019-01-29T11:05:22.624Z,14.67
2019-01-29T11:07:51.112Z,14.13
2019-01-29T11:10:20.887Z,12.47
2019-01-29T11:12:49.300Z,14.73
2019-01-29T11:15:26.586Z,17.73
2019-01-29T11:17:55.251Z,14.13
2019-01-29T11:20:24.036Z,12.03
2019-01-29T11:22:52.453Z,12.57
2019-01-29T11:25:26.049Z,17.97
2019-01-29T11:27:54.471Z,12.13
2019-01-29T11:30:28.677Z,15.63
2019-01-29T11:32:57.573Z,11.07
2019-01-29T11:35:26.168Z,17.33
2019-01-29T11:37:54.724Z,14.83
2019-01-29T11:40:28.382Z,12.57
2019-01-29T11:42:56.784Z,14.97
2019-01-29T11:45:40.017Z,13.53
2019-01-29T11:48:08.429Z,11.40
2019-01-29T11:50:36.942Z,13.83
2019-01-29T11:53:05.645Z,12.00
2019-01-29T11:55:34.059Z,9.17
2019-01-29T11:58:02.789Z,9.03
2019-01-29T12:00:37.443Z,6.73
2019-01-29T12:03:25.561Z,6.73
2019-01-29T12:05:54.076Z,11.03
2019-01-29T12:08:22.556Z,6.97
2019-01-29T12:10:50.968Z,6.60
2019-01-29T12:13:19.683Z,7.53
2019-01-29T12:15:48.101Z,7.20
2019-01-29T12:18:16.609Z,8.23
2019-01-29T12:20:45.099Z,7.53
2019-01-29T12:23:13.506Z,7.47
2019-01-29T12:25:41.943Z,5.83
2019-01-29T12:28:10.664Z,7.53
2019-01-29T12:30:39.072Z,7.57
2019-01-29T12:33:08.449Z,8.70
2019-01-29T12:35:36.864Z,8.27
2019-01-29T12:38:05.417Z,6.77
2019-01-29T12:40:33.830Z,6.27
2019-01-29T12:43:02.253Z,7.60
2019-01-29T12:45:30.812Z,6.70
2019-01-29T12:47:59.221Z,6.90
2019-01-29T12:50:31.995Z,4.60
2019-01-29T12:53:03.786Z,8.63
2019-01-29T12:55:32.528Z,5.50
2019-01-29T12:58:01.012Z,6.73
2019-01-29T13:00:34.549Z,8.03
2019-01-29T13:03:02.970Z,5.07
2019-01-29T13:05:32.728Z,5.87
2019-01-29T13:08:14.041Z,7.37
2019-01-29T13:10:42.453Z,4.97
2019-01-29T13:13:11.323Z,3.97
2019-01-29T13:15:39.796Z,5.20
2019-01-29T13:18:08.222Z,5.77
2019-01-29T13:20:36.635Z,4.50
2019-01-29T13:23:05.393Z,5.00
2019-01-29T13:25:33.806Z,5.57
2019-01-29T13:28:02.229Z,8.07
2019-01-29T13:30:35.143Z,6.00
2019-01-29T13:33:06.717Z,5.77
2019-01-29T13:35:36.460Z,8.07
2019-01-29T13:38:06.432Z,8.00
2019-01-29T13:40:35.130Z,8.03
2019-01-29T13:43:03.915Z,6.13
2019-01-29T13:45:32.320Z,6.07
2019-01-29T13:48:00.745Z,6.03
2019-01-29T13:50:40.853Z,6.37
2019-01-29T13:53:09.283Z,7.03
2019-01-29T13:55:38.177Z,6.37
2019-01-29T13:58:08.345Z,10.40
2019-01-29T14:00:39.060Z,5.10
2019-01-29T14:03:09.533Z,6.00
2019-01-29T14:05:37.924Z,4.73
2019-01-29T14:08:06.687Z,7.93
2019-01-29T14:10:54.454Z,6.33
2019-01-29T14:13:22.891Z,3.27
2019-01-29T14:15:52.757Z,6.30
2019-01-29T14:18:21.460Z,6.57
2019-01-29T14:20:49.897Z,4.23
2019-01-29T14:23:18.619Z,6.93
2019-01-29T14:25:47.034Z,13.93
2019-01-29T14:28:15.444Z,6.57
2019-01-29T14:30:43.944Z,4.60
2019-01-29T14:33:12.635Z,7.53
2019-01-29T14:35:41.032Z,4.37
2019-01-29T14:38:20.838Z,5.07
2019-01-29T14:40:49.249Z,4.57
2019-01-29T14:43:44.378Z,3.30
2019-01-29T14:46:12.865Z,5.27
2019-01-29T14:48:41.296Z,5.73
2019-01-29T14:51:09.777Z,4.93
2019-01-29T14:53:38.190Z,5.90
2019-01-29T14:56:06.596Z,4.20
2019-01-29T14:58:35.103Z,4.63
2019-01-29T15:01:04.184Z,4.97
2019-01-29T15:03:32.597Z,6.07
2019-01-29T15:06:01.015Z,4.77
2019-01-29T15:08:29.507Z,6.00
2019-01-29T15:10:58.274Z,5.63
2019-01-29T15:13:26.969Z,8.03
2019-01-29T15:16:05.873Z,6.70
2019-01-29T15:18:35.925Z,4.67
2019-01-29T15:21:04.341Z,5.13
2019-01-29T15:23:32.780Z,7.37
2019-01-29T15:26:01.187Z,7.57
2019-01-29T15:28:29.611Z,6.47
2019-01-29T15:30:58.306Z,9.53
2019-01-29T15:33:26.734Z,5.57
2019-01-29T15:35:55.151Z,3.90
2019-01-29T15:38:23.566Z,7.77
2019-01-29T15:40:51.999Z,10.27
2019-01-29T15:43:20.403Z,7.53
2019-01-29T15:45:48.829Z,4.40
2019-01-29T15:48:17.313Z,8.93
2019-01-29T15:50:45.733Z,4.73
2019-01-29T15:53:14.283Z,4.97
2019-01-29T15:55:42.706Z,6.30
2019-01-29T15:58:11.280Z,7.87
2019-01-29T16:00:40.752Z,4.87
2019-01-29T16:03:09.228Z,8.27
2019-01-29T16:05:39.784Z,7.23
2019-01-29T16:08:13.052Z,6.43
2019-01-29T16:10:43.020Z,8.80
2019-01-29T16:13:11.572Z,11.63
2019-01-29T16:15:40.645Z,12.63
2019-01-29T16:18:09.197Z,7.47
2019-01-29T16:20:37.769Z,6.10
2019-01-29T16:23:07.159Z,11.13
2019-01-29T16:25:36.430Z,7.83
2019-01-29T16:28:05.021Z,8.23
2019-01-29T16:30:38.057Z,12.10
2019-01-29T16:33:06.717Z,7.33
2019-01-29T16:35:44.620Z,7.10
2019-01-29T16:38:13.377Z,7.67
2019-01-29T16:40:46.666Z,5.10
2019-01-29T16:43:15.216Z,8.38
2019-01-29T16:45:43.648Z,5.00
2019-01-29T16:48:12.312Z,5.92
2019-01-29T16:51:00.115Z,5.20
2019-01-29T16:53:28.537Z,9.90
2019-01-29T16:55:56.968Z,8.17
2019-01-29T16:58:26.219Z,6.40
2019-01-29T17:00:54.915Z,6.65
2019-01-29T17:03:23.333Z,9.85
2019-01-29T17:05:51.900Z,11.63
2019-01-29T17:08:20.461Z,13.35
2019-01-29T17:10:49.028Z,11.40
2019-01-29T17:13:17.704Z,12.50
2019-01-29T17:15:46.381Z,16.70
2019-01-29T17:18:14.932Z,11.38
2019-01-29T17:20:45.141Z,11.80
2019-01-29T17:23:13.736Z,12.73
2019-01-29T17:25:42.237Z,18.23
2019-01-29T17:28:10.796Z,17.87
2019-01-29T17:30:41.730Z,22.87
2019-01-29T17:33:11.408Z,15.85
2019-01-29T17:35:40.470Z,26.77
2019-01-29T17:38:09.034Z,30.25
2019-01-29T17:40:37.869Z,28.05
2019-01-29T17:43:07.236Z,24.57
2019-01-29T17:45:41.669Z,29.32
2019-01-29T17:48:10.325Z,34.63
2019-01-29T17:50:44.101Z,34.65
2019-01-29T17:53:12.588Z,44.53
2019-01-29T17:55:42.465Z,44.30
2019-01-29T17:58:11.724Z,47.08
2019-01-29T18:00:42.026Z,42.00
2019-01-29T18:03:10.612Z,57.58
2019-01-29T18:05:39.274Z,37.98
2019-01-29T18:08:19.477Z,33.95
2019-01-29T18:10:48.362Z,43.73
2019-01-29T18:13:17.116Z,40.25
2019-01-29T18:15:45.780Z,30.02
2019-01-29T18:18:14.340Z,22.17
2019-01-29T18:20:43.098Z,18.10
2019-01-29T18:23:11.877Z,21.00
2019-01-29T18:25:40.638Z,69.10
2019-01-29T18:28:09.136Z,36.28
2019-01-29T18:30:37.996Z,27.82
2019-01-29T18:33:06.969Z,15.30
2019-01-29T18:35:35.744Z,17.75
2019-01-29T18:38:04.716Z,17.80
2019-01-29T18:40:36.588Z,12.30
2019-01-29T18:43:05.709Z,18.60
2019-01-29T18:45:34.574Z,14.13
2019-01-29T18:48:03.362Z,15.88
2019-01-29T18:50:32.356Z,17.25
2019-01-29T18:53:01.412Z,14.95
2019-01-29T18:55:29.969Z,17.85
2019-01-29T18:57:58.740Z,19.50
2019-01-29T19:00:27.929Z,16.85
2019-01-29T19:02:57.240Z,12.37
2019-01-29T19:05:26.939Z,16.65
2019-01-29T19:07:55.833Z,13.15
2019-01-29T19:10:25.008Z,13.20
2019-01-29T19:12:53.918Z,12.13
2019-01-29T19:15:25.104Z,13.88
2019-01-29T19:17:55.018Z,16.82
2019-01-29T19:20:25.495Z,10.63
2019-01-29T19:22:55.152Z,15.78
2019-01-29T19:25:24.793Z,13.72
2019-01-29T19:27:54.741Z,11.57
2019-01-29T19:30:33.709Z,10.20
2019-01-29T19:33:03.402Z,12.73
2019-01-29T19:35:33.205Z,16.07
2019-01-29T19:38:02.925Z,11.30
2019-01-29T19:40:32.137Z,10.13
2019-01-29T19:43:01.707Z,10.70
2019-01-29T19:45:35.507Z,11.25
2019-01-29T19:48:05.797Z,10.03
2019-01-29T19:50:35.134Z,10.95
2019-01-29T19:53:04.853Z,8.93
2019-01-29T19:55:34.802Z,9.83
2019-01-29T19:58:09.274Z,8.00
2019-01-29T20:00:59.476Z,8.90
2019-01-29T20:03:28.892Z,11.50
2019-01-29T20:05:58.672Z,9.48
2019-01-29T20:08:28.502Z,8.70
2019-01-29T20:10:57.824Z,10.05
2019-01-29T20:13:27.208Z,13.58
2019-01-29T20:15:56.700Z,9.43
2019-01-29T20:18:26.208Z,8.23
2019-01-29T20:20:55.371Z,12.45
2019-01-29T20:23:24.433Z,12.85
2019-01-29T20:25:53.188Z,11.40
2019-01-29T20:28:21.945Z,13.75
2019-01-29T20:30:50.615Z,12.47
2019-01-29T20:33:19.180Z,13.60
2019-01-29T20:35:47.598Z,10.05
2019-01-29T20:38:16.091Z,11.28
2019-01-29T20:40:44.506Z,15.45
2019-01-29T20:43:12.916Z,15.00
2019-01-29T20:45:41.364Z,18.37
2019-01-29T20:48:09.918Z,15.38
2019-01-29T20:50:38.681Z,17.32
2019-01-29T20:53:07.138Z,14.53
2019-01-29T20:55:35.784Z,13.80
2019-01-29T20:58:05.244Z,15.93
2019-01-29T21:00:36.307Z,12.98
2019-01-29T21:03:05.061Z,15.75
2019-01-29T21:05:33.620Z,18.73
2019-01-29T21:08:02.050Z,16.00
2019-01-29T21:10:30.530Z,15.05
2019-01-29T21:12:58.962Z,13.98
2019-01-29T21:15:37.723Z,16.62
2019-01-29T21:17:58.544Z,29.05
2019-01-29T21:20:29.301Z,14.68
2019-01-29T21:22:58.165Z,15.35
2019-01-29T21:25:26.661Z,16.00
2019-01-29T21:27:55.224Z,13.18
2019-01-29T21:30:44.056Z,14.35
2019-01-29T21:33:12.588Z,13.38
2019-01-29T21:35:41.012Z,15.58
2019-01-29T21:38:09.561Z,13.88
2019-01-29T21:40:38.156Z,14.30
2019-01-29T21:43:06.568Z,15.63
2019-01-29T21:45:34.992Z,11.43
2019-01-29T21:48:03.475Z,12.40
2019-01-29T21:50:34.107Z,14.25
2019-01-29T21:53:02.534Z,16.07
2019-01-29T21:55:31.056Z,12.68
2019-01-29T21:57:59.653Z,22.82
2019-01-29T22:00:36.717Z,16.77
2019-01-29T22:03:05.985Z,12.33
2019-01-29T22:05:35.645Z,12.28
2019-01-29T22:08:05.604Z,13.25
2019-01-29T22:10:34.028Z,12.37
2019-01-29T22:13:02.520Z,12.70
2019-01-29T22:15:30.947Z,11.97
2019-01-29T22:17:59.361Z,21.85
2019-01-29T22:20:27.798Z,12.25
2019-01-29T22:22:56.776Z,13.75
2019-01-29T22:25:25.747Z,11.70
2019-01-29T22:27:54.165Z,13.05
2019-01-29T22:30:30.924Z,11.97
2019-01-29T22:32:59.337Z,12.63
2019-01-29T22:35:27.760Z,10.48
2019-01-29T22:37:56.176Z,11.65
2019-01-29T22:40:27.108Z,10.32
2019-01-29T22:42:56.196Z,11.83
2019-01-29T22:45:24.617Z,9.80
2019-01-29T22:47:53.035Z,10.15
2019-01-29T22:50:29.481Z,12.50
2019-01-29T22:52:57.973Z,14.47
2019-01-29T22:55:26.467Z,12.10
2019-01-29T22:57:55.053Z,12.70
2019-01-29T23:00:52.128Z,12.43
2019-01-29T23:03:23.289Z,10.58
2019-01-29T23:06:03.113Z,9.58
2019-01-29T23:08:31.798Z,10.38
2019-01-29T23:11:00.999Z,10.85
2019-01-29T23:13:29.407Z,11.30
2019-01-29T23:15:57.843Z,11.35
2019-01-29T23:18:26.252Z,12.13
2019-01-29T23:20:54.676Z,9.93
2019-01-29T23:23:23.090Z,10.60
2019-01-29T23:25:51.507Z,10.20
2019-01-29T23:28:19.948Z,13.25
2019-01-29T23:30:48.672Z,13.45
2019-01-29T23:33:17.100Z,11.00
2019-01-29T23:35:45.529Z,13.32
2019-01-29T23:38:13.960Z,12.28
2019-01-29T23:40:42.495Z,13.58
2019-01-29T23:43:10.877Z,13.05
2019-01-29T23:45:39.300Z,13.32
2019-01-29T23:48:07.716Z,9.88
2019-01-29T23:50:36.141Z,14.03
2019-01-29T23:53:04.625Z,12.85
2019-01-29T23:55:33.052Z,11.28
2019-01-29T23:58:01.479Z,10.90
